createdAt,value
2019-01-20T00:01:35.833Z,34.03
2019-01-20T00:04:06.379Z,28.37
2019-01-20T00:06:37.035Z,31.13
2019-01-20T00:09:08.910Z,31.00
2019-01-20T00:11:39.579Z,28.40
2019-01-20T00:14:10.225Z,28.03
2019-01-20T00:16:40.970Z,30.50
2019-01-20T00:19:11.598Z,27.80
2019-01-20T00:21:41.962Z,30.77
2019-01-20T00:24:12.539Z,26.93
2019-01-20T00:26:43.332Z,26.53
2019-01-20T00:29:13.586Z,32.47
2019-01-20T00:31:44.264Z,31.03
2019-01-20T00:34:15.077Z,27.80
2019-01-20T00:36:45.739Z,31.73
2019-01-20T00:39:16.340Z,31.40
2019-01-20T00:41:46.981Z,30.33
2019-01-20T00:44:17.644Z,28.30
2019-01-20T00:46:48.335Z,28.63
2019-01-20T00:49:18.972Z,34.17
2019-01-20T00:51:49.601Z,28.07
2019-01-20T00:54:20.339Z,29.67
2019-01-20T00:56:50.965Z,31.30
2019-01-20T00:59:21.709Z,28.63
2019-01-20T01:01:52.322Z,28.47
2019-01-20T01:04:23.063Z,28.20
2019-01-20T01:06:53.697Z,31.20
2019-01-20T01:09:24.506Z,35.40
2019-01-20T01:11:55.266Z,28.93
2019-01-20T01:14:25.481Z,29.03
2019-01-20T01:16:56.117Z,32.73
2019-01-20T01:19:26.444Z,32.87
2019-01-20T01:21:57.110Z,30.53
2019-01-20T01:24:27.712Z,29.57
2019-01-20T01:26:58.431Z,29.80
2019-01-20T01:29:29.098Z,29.07
2019-01-20T01:31:59.728Z,30.57
2019-01-20T01:34:30.486Z,31.83
2019-01-20T01:37:01.169Z,31.83
2019-01-20T01:39:31.908Z,34.93
2019-01-20T01:42:02.543Z,31.10
2019-01-20T01:44:36.342Z,29.40
2019-01-20T01:47:06.996Z,31.07
2019-01-20T01:49:37.626Z,32.40
2019-01-20T01:52:08.226Z,31.87
2019-01-20T01:54:38.526Z,33.50
2019-01-20T01:57:09.191Z,29.10
2019-01-20T01:59:39.822Z,30.23
2019-01-20T02:02:11.068Z,34.13
2019-01-20T02:04:41.256Z,33.87
2019-01-20T02:07:11.924Z,32.87
2019-01-20T02:09:42.576Z,31.17
2019-01-20T02:12:15.191Z,29.87
2019-01-20T02:14:45.748Z,31.00
2019-01-20T02:17:16.398Z,31.07
2019-01-20T02:19:46.944Z,33.43
2019-01-20T02:22:17.648Z,33.20
2019-01-20T02:24:48.390Z,31.53
2019-01-20T02:27:19.089Z,34.70
2019-01-20T02:29:49.713Z,32.30
2019-01-20T02:32:20.292Z,32.07
2019-01-20T02:34:50.945Z,32.73
2019-01-20T02:37:21.707Z,36.87
2019-01-20T02:39:52.441Z,38.63
2019-01-20T02:42:23.159Z,38.00
2019-01-20T02:44:53.773Z,36.27
2019-01-20T02:47:24.507Z,35.07
2019-01-20T02:49:55.431Z,34.07
2019-01-20T02:52:25.828Z,34.80
2019-01-20T02:54:56.369Z,31.87
2019-01-20T02:57:26.936Z,34.53
2019-01-20T02:59:57.660Z,33.73
2019-01-20T03:02:29.112Z,32.90
2019-01-20T03:04:59.722Z,38.10
2019-01-20T03:07:30.356Z,34.30
2019-01-20T03:10:03.260Z,34.93
2019-01-20T03:12:33.868Z,37.50
2019-01-20T03:15:11.950Z,34.93
2019-01-20T03:17:42.331Z,33.50
2019-01-20T03:20:15.291Z,35.33
2019-01-20T03:22:47.523Z,35.70
2019-01-20T03:25:18.137Z,36.33
2019-01-20T03:27:48.845Z,35.27
2019-01-20T03:30:22.917Z,32.40
2019-01-20T03:32:53.595Z,34.90
2019-01-20T03:35:24.550Z,34.50
2019-01-20T03:37:55.187Z,38.33
2019-01-20T03:40:28.092Z,34.73
2019-01-20T03:42:58.801Z,32.50
2019-01-20T03:45:29.065Z,34.37
2019-01-20T03:48:00.485Z,33.97
2019-01-20T03:50:31.753Z,33.53
2019-01-20T03:53:02.936Z,33.40
2019-01-20T03:55:33.552Z,34.33
2019-01-20T03:58:04.230Z,36.33
2019-01-20T04:00:34.929Z,38.17
2019-01-20T04:03:05.922Z,35.13
2019-01-20T04:05:36.506Z,36.43
2019-01-20T04:08:10.595Z,34.10
2019-01-20T04:10:41.251Z,34.23
2019-01-20T04:13:12.303Z,34.47
2019-01-20T04:15:43.031Z,37.20
2019-01-20T04:18:13.745Z,35.13
2019-01-20T04:20:44.402Z,38.77
2019-01-20T04:23:15.141Z,35.40
2019-01-20T04:25:47.374Z,34.83
2019-01-20T04:28:18.047Z,38.57
2019-01-20T04:30:48.563Z,36.20
2019-01-20T04:33:20.742Z,38.20
2019-01-20T04:35:51.353Z,38.27
2019-01-20T04:38:22.029Z,46.37
2019-01-20T04:40:52.724Z,37.87
2019-01-20T04:43:23.478Z,37.23
2019-01-20T04:45:56.436Z,38.47
2019-01-20T04:48:27.076Z,41.17
2019-01-20T04:50:57.348Z,42.10
2019-01-20T04:53:28.433Z,36.80
2019-01-20T04:55:59.062Z,41.33
2019-01-20T04:58:30.004Z,40.57
2019-01-20T05:01:00.645Z,43.67
2019-01-20T05:03:31.370Z,39.93
2019-01-20T05:06:01.912Z,41.07
2019-01-20T05:08:32.524Z,38.43
2019-01-20T05:11:03.071Z,44.97
2019-01-20T05:13:33.672Z,43.60
2019-01-20T05:16:04.404Z,46.90
2019-01-20T05:18:35.033Z,39.63
2019-01-20T05:21:05.724Z,45.13
2019-01-20T05:23:36.318Z,39.30
2019-01-20T05:26:06.539Z,38.53
2019-01-20T05:28:37.169Z,40.87
2019-01-20T05:31:08.006Z,46.53
2019-01-20T05:33:38.646Z,44.90
2019-01-20T05:36:09.299Z,47.70
2019-01-20T05:38:40.044Z,43.17
2019-01-20T05:41:10.740Z,42.93
2019-01-20T05:43:41.375Z,44.10
2019-01-20T05:46:12.017Z,43.97
2019-01-20T05:48:42.633Z,43.77
2019-01-20T05:51:13.802Z,42.80
2019-01-20T05:53:44.433Z,44.33
2019-01-20T05:56:15.053Z,41.63
2019-01-20T05:58:45.691Z,43.17
2019-01-20T06:01:16.319Z,45.37
2019-01-20T06:03:47.054Z,41.53
2019-01-20T06:06:17.585Z,44.90
2019-01-20T06:08:48.322Z,45.03
2019-01-20T06:11:18.950Z,45.70
2019-01-20T06:13:49.578Z,46.20
2019-01-20T06:16:20.128Z,46.63
2019-01-20T06:18:50.734Z,46.20
2019-01-20T06:21:21.263Z,44.07
2019-01-20T06:23:51.895Z,48.70
2019-01-20T06:26:22.535Z,45.63
2019-01-20T06:28:53.089Z,46.97
2019-01-20T06:31:23.796Z,43.77
2019-01-20T06:33:54.426Z,47.53
2019-01-20T06:36:25.070Z,48.90
2019-01-20T06:38:55.998Z,50.73
2019-01-20T06:41:26.750Z,46.93
2019-01-20T06:43:57.484Z,48.93
2019-01-20T06:46:28.197Z,47.57
2019-01-20T06:48:58.883Z,47.17
2019-01-20T06:51:29.572Z,46.37
2019-01-20T06:54:00.193Z,47.90
2019-01-20T06:56:30.879Z,48.17
2019-01-20T06:59:01.576Z,51.00
2019-01-20T07:01:31.913Z,46.47
2019-01-20T07:04:02.578Z,46.03
2019-01-20T07:06:33.144Z,46.80
2019-01-20T07:09:05.647Z,49.33
2019-01-20T07:11:36.378Z,50.30
2019-01-20T07:14:07.064Z,49.80
2019-01-20T07:16:37.769Z,49.57
2019-01-20T07:19:08.570Z,49.13
2019-01-20T07:21:39.206Z,49.87
2019-01-20T07:24:09.833Z,47.90
2019-01-20T07:26:40.468Z,49.63
2019-01-20T07:29:11.198Z,48.67
2019-01-20T07:31:42.452Z,47.83
2019-01-20T07:34:12.701Z,48.80
2019-01-20T07:36:43.218Z,49.30
2019-01-20T07:39:13.863Z,51.90
2019-01-20T07:41:44.877Z,50.30
2019-01-20T07:44:15.513Z,51.20
2019-01-20T07:46:46.250Z,50.43
2019-01-20T07:49:16.882Z,47.33
2019-01-20T07:51:47.493Z,50.80
2019-01-20T07:54:18.261Z,47.40
2019-01-20T07:56:49.174Z,48.10
2019-01-20T07:59:21.645Z,47.67
2019-01-20T08:01:53.837Z,48.87
2019-01-20T08:04:28.530Z,52.43
2019-01-20T08:06:58.905Z,49.27
2019-01-20T08:09:29.601Z,46.43
2019-01-20T08:12:00.547Z,50.77
2019-01-20T08:14:31.175Z,49.00
2019-01-20T08:17:03.571Z,50.00
2019-01-20T08:19:34.308Z,48.37
2019-01-20T08:22:05.014Z,48.37
2019-01-20T08:24:38.747Z,48.43
2019-01-20T08:27:09.341Z,50.97
2019-01-20T08:29:39.997Z,52.83
2019-01-20T08:32:10.630Z,54.00
2019-01-20T08:34:41.345Z,67.87
2019-01-20T08:37:11.973Z,69.70
2019-01-20T08:39:42.633Z,63.70
2019-01-20T08:42:12.936Z,73.90
2019-01-20T08:44:43.605Z,66.73
2019-01-20T08:47:16.467Z,56.03
2019-01-20T08:49:47.197Z,66.57
2019-01-20T08:52:20.651Z,70.00
2019-01-20T08:54:51.227Z,60.60
2019-01-20T08:57:21.903Z,52.43
2019-01-20T08:59:52.252Z,54.80
2019-01-20T09:02:24.860Z,60.53
2019-01-20T09:04:55.517Z,54.90
2019-01-20T09:07:26.234Z,50.80
2019-01-20T09:09:56.947Z,56.37
2019-01-20T09:12:27.944Z,52.27
2019-01-20T09:14:58.645Z,56.27
2019-01-20T09:17:30.645Z,53.07
2019-01-20T09:20:01.741Z,51.93
2019-01-20T09:22:32.371Z,57.00
2019-01-20T09:25:03.146Z,52.40
2019-01-20T09:27:33.839Z,57.80
2019-01-20T09:30:07.956Z,52.50
2019-01-20T09:32:38.290Z,52.90
2019-01-20T09:35:09.316Z,54.80
2019-01-20T09:37:39.706Z,56.23
2019-01-20T09:40:13.038Z,59.13
2019-01-20T09:42:44.226Z,58.23
2019-01-20T09:45:28.099Z,53.13
2019-01-20T09:48:02.020Z,54.87
2019-01-20T09:50:32.782Z,54.97
2019-01-20T09:53:03.414Z,54.53
2019-01-20T09:55:34.035Z,56.87
2019-01-20T09:58:05.079Z,56.60
2019-01-20T10:00:38.167Z,57.70
2019-01-20T10:03:16.011Z,55.97
2019-01-20T10:05:41.282Z,51.67
2019-01-20T10:08:12.034Z,59.20
2019-01-20T10:10:42.730Z,59.83
2019-01-20T10:13:16.337Z,56.17
2019-01-20T10:15:47.208Z,55.70
2019-01-20T10:18:17.910Z,54.10
2019-01-20T10:20:49.200Z,57.47
2019-01-20T10:23:22.802Z,55.03
2019-01-20T10:25:53.463Z,57.10
2019-01-20T10:28:24.356Z,58.57
2019-01-20T10:30:55.059Z,53.53
2019-01-20T10:33:25.685Z,57.40
2019-01-20T10:35:58.510Z,58.50
2019-01-20T10:38:29.198Z,53.17
2019-01-20T10:40:59.936Z,53.83
2019-01-20T10:43:30.589Z,50.60
2019-01-20T10:46:04.275Z,56.37
2019-01-20T10:48:35.003Z,52.30
2019-01-20T10:51:05.626Z,52.43
2019-01-20T10:53:36.301Z,52.67
2019-01-20T10:56:07.825Z,51.43
2019-01-20T10:58:38.635Z,52.47
2019-01-20T11:01:09.389Z,55.30
2019-01-20T11:03:42.064Z,53.77
2019-01-20T11:06:13.893Z,54.27
2019-01-20T11:08:44.570Z,50.37
2019-01-20T11:11:15.197Z,48.50
2019-01-20T11:13:45.931Z,51.93
2019-01-20T11:16:18.302Z,45.30
2019-01-20T11:18:48.932Z,52.27
2019-01-20T11:21:20.272Z,43.27
2019-01-20T11:23:53.506Z,43.23
2019-01-20T11:26:23.299Z,46.40
2019-01-20T11:28:53.713Z,47.43
2019-01-20T11:31:24.450Z,47.77
2019-01-20T11:33:55.087Z,49.93
2019-01-20T11:36:29.056Z,46.20
2019-01-20T11:38:59.779Z,45.80
2019-01-20T11:41:30.574Z,41.77
2019-01-20T11:44:04.061Z,48.90
2019-01-20T11:46:34.680Z,46.07
2019-01-20T11:49:05.425Z,43.70
2019-01-20T11:51:36.143Z,43.67
2019-01-20T11:54:08.179Z,43.83
2019-01-20T11:56:38.846Z,44.53
2019-01-20T11:59:09.645Z,46.23
2019-01-20T12:01:40.774Z,45.13
2019-01-20T12:04:13.485Z,47.17
2019-01-20T12:06:44.031Z,42.77
2019-01-20T12:09:14.714Z,44.23
2019-01-20T12:11:45.557Z,44.17
2019-01-20T12:14:16.583Z,41.50
2019-01-20T12:16:46.912Z,42.43
2019-01-20T12:19:17.501Z,39.50
2019-01-20T12:21:49.061Z,37.97
2019-01-20T12:24:19.996Z,39.03
2019-01-20T12:26:50.788Z,43.50
2019-01-20T12:29:21.459Z,39.90
2019-01-20T12:31:53.218Z,41.67
2019-01-20T12:34:24.709Z,41.27
2019-01-20T12:36:56.849Z,39.40
2019-01-20T12:39:27.704Z,39.90
2019-01-20T12:41:58.457Z,42.80
2019-01-20T12:44:31.547Z,42.37
2019-01-20T12:47:01.468Z,41.30
2019-01-20T12:49:32.280Z,38.90
2019-01-20T12:52:02.979Z,36.63
2019-01-20T12:54:34.632Z,38.97
2019-01-20T12:57:05.589Z,45.30
2019-01-20T12:59:36.132Z,40.17
2019-01-20T13:02:06.610Z,38.30
2019-01-20T13:04:37.508Z,40.17
2019-01-20T13:07:08.301Z,39.43
2019-01-20T13:09:39.145Z,40.87
2019-01-20T13:12:09.786Z,35.40
2019-01-20T13:14:40.418Z,42.17
2019-01-20T13:17:11.048Z,45.43
2019-01-20T13:19:44.531Z,39.23
2019-01-20T13:22:14.506Z,40.07
2019-01-20T13:24:47.721Z,42.77
2019-01-20T13:27:18.388Z,41.20
2019-01-20T13:29:49.041Z,42.93
2019-01-20T13:32:19.814Z,41.77
2019-01-20T13:34:51.610Z,44.80
2019-01-20T13:37:22.240Z,42.23
2019-01-20T13:39:52.535Z,42.70
2019-01-20T13:42:23.410Z,42.87
2019-01-20T13:44:55.545Z,43.77
2019-01-20T13:47:26.867Z,46.00
2019-01-20T13:49:57.605Z,56.20
2019-01-20T13:52:28.075Z,60.43
2019-01-20T13:54:58.482Z,50.97
2019-01-20T13:57:29.316Z,49.20
2019-01-20T14:00:00.092Z,52.67
2019-01-20T14:02:30.947Z,48.03
2019-01-20T14:05:02.566Z,45.73
2019-01-20T14:07:33.202Z,47.67
2019-01-20T14:10:07.343Z,43.93
2019-01-20T14:12:38.603Z,46.47
2019-01-20T14:15:11.856Z,45.97
2019-01-20T14:17:42.486Z,47.30
2019-01-20T14:20:16.332Z,44.47
2019-01-20T14:22:47.046Z,45.13
2019-01-20T14:25:20.233Z,46.47
2019-01-20T14:27:50.981Z,43.93
2019-01-20T14:30:24.747Z,44.80
2019-01-20T14:32:55.443Z,44.07
2019-01-20T14:35:26.224Z,42.07
2019-01-20T14:37:56.606Z,44.27
2019-01-20T14:40:27.318Z,49.57
2019-01-20T14:42:58.031Z,48.80
2019-01-20T14:45:32.358Z,48.00
2019-01-20T14:48:05.251Z,46.63
2019-01-20T14:50:35.973Z,43.13
2019-01-20T14:53:08.914Z,40.70
2019-01-20T14:55:39.616Z,42.73
2019-01-20T14:58:10.361Z,45.23
2019-01-20T15:00:41.061Z,43.47
2019-01-20T15:03:11.812Z,43.20
2019-01-20T15:05:42.190Z,39.57
2019-01-20T15:08:13.388Z,41.60
2019-01-20T15:10:44.099Z,40.60
2019-01-20T15:13:14.913Z,39.27
2019-01-20T15:15:45.568Z,37.63
2019-01-20T15:18:16.563Z,42.07
2019-01-20T15:20:47.257Z,37.97
2019-01-20T15:23:17.974Z,41.13
2019-01-20T15:25:48.712Z,39.20
2019-01-20T15:28:19.049Z,41.97
2019-01-20T15:30:49.567Z,43.60
2019-01-20T15:33:19.921Z,40.43
2019-01-20T15:35:50.515Z,40.43
2019-01-20T15:38:21.593Z,38.47
2019-01-20T15:40:52.194Z,34.63
2019-01-20T15:43:22.848Z,33.93
2019-01-20T15:45:53.565Z,35.73
2019-01-20T15:48:24.292Z,38.13
2019-01-20T15:50:54.939Z,35.23
2019-01-20T15:53:25.679Z,39.00
2019-01-20T15:55:56.402Z,34.13
2019-01-20T15:58:27.157Z,33.70
2019-01-20T16:00:57.871Z,34.20
2019-01-20T16:03:32.887Z,31.07
2019-01-20T16:06:02.482Z,32.47
2019-01-20T16:08:36.360Z,35.10
2019-01-20T16:11:07.069Z,32.20
2019-01-20T16:13:37.909Z,32.37
2019-01-20T16:16:10.287Z,35.10
2019-01-20T16:18:41.066Z,37.93
2019-01-20T16:21:12.320Z,35.67
2019-01-20T16:23:43.121Z,37.10
2019-01-20T16:26:14.887Z,35.90
2019-01-20T16:28:45.763Z,34.33
2019-01-20T16:31:16.421Z,32.70
2019-01-20T16:33:47.136Z,31.40
2019-01-20T16:36:17.663Z,31.80
2019-01-20T16:38:48.447Z,30.73
2019-01-20T16:41:19.059Z,36.13
2019-01-20T16:43:49.779Z,33.37
2019-01-20T16:46:22.100Z,37.00
2019-01-20T16:48:53.003Z,33.27
2019-01-20T16:51:23.637Z,35.53
2019-01-20T16:53:54.351Z,36.40
2019-01-20T16:56:25.088Z,35.00
2019-01-20T16:58:55.808Z,31.17
2019-01-20T17:01:26.583Z,36.03
2019-01-20T17:03:56.955Z,35.53
2019-01-20T17:06:27.951Z,33.63
2019-01-20T17:09:01.551Z,35.57
2019-01-20T17:11:32.311Z,36.20
2019-01-20T17:14:03.054Z,38.47
2019-01-20T17:16:33.728Z,39.87
2019-01-20T17:19:05.012Z,39.67
2019-01-20T17:21:35.852Z,36.67
2019-01-20T17:24:06.533Z,39.33
2019-01-20T17:26:37.411Z,35.23
2019-01-20T17:29:08.150Z,42.40
2019-01-20T17:31:38.879Z,38.63
2019-01-20T17:34:09.693Z,40.97
2019-01-20T17:36:40.966Z,41.87
2019-01-20T17:39:15.800Z,39.83
2019-01-20T17:41:46.520Z,38.90
2019-01-20T17:44:17.342Z,40.37
2019-01-20T17:46:48.178Z,38.73
2019-01-20T17:49:19.508Z,39.77
2019-01-20T17:51:50.392Z,41.77
2019-01-20T17:54:21.081Z,41.43
2019-01-20T17:56:51.923Z,40.73
2019-01-20T17:59:23.074Z,41.07
2019-01-20T18:01:53.877Z,41.40
2019-01-20T18:04:24.722Z,40.27
2019-01-20T18:06:55.355Z,40.20
2019-01-20T18:09:26.219Z,40.47
2019-01-20T18:11:57.088Z,38.13
2019-01-20T18:14:27.765Z,41.27
2019-01-20T18:16:59.642Z,37.23
2019-01-20T18:19:30.403Z,37.87
2019-01-20T18:22:01.218Z,35.93
2019-01-20T18:24:32.301Z,37.37
2019-01-20T18:27:03.774Z,35.70
2019-01-20T18:29:34.696Z,38.60
2019-01-20T18:32:06.225Z,39.30
2019-01-20T18:34:37.070Z,41.47
2019-01-20T18:37:08.058Z,44.23
2019-01-20T18:39:38.734Z,39.73
2019-01-20T18:42:09.542Z,41.07
2019-01-20T18:44:40.281Z,39.23
2019-01-20T18:47:11.222Z,41.20
2019-01-20T18:49:42.110Z,51.50
2019-01-20T18:52:12.970Z,38.00
2019-01-20T18:54:43.727Z,43.67
2019-01-20T18:57:15.614Z,43.67
2019-01-20T18:59:48.061Z,39.87
2019-01-20T19:02:18.459Z,39.97
2019-01-20T19:04:49.238Z,42.90
2019-01-20T19:07:20.630Z,43.27
2019-01-20T19:09:51.332Z,39.53
2019-01-20T19:12:22.120Z,41.23
2019-01-20T19:14:58.781Z,46.20
2019-01-20T19:17:29.664Z,40.33
2019-01-20T19:20:00.395Z,38.03
2019-01-20T19:22:31.266Z,36.90
2019-01-20T19:25:01.952Z,44.13
2019-01-20T19:27:32.733Z,41.43
2019-01-20T19:30:05.285Z,42.93
2019-01-20T19:32:36.011Z,45.00
2019-01-20T19:35:10.345Z,43.40
2019-01-20T19:37:41.165Z,40.07
2019-01-20T19:40:14.292Z,41.77
2019-01-20T19:42:45.097Z,37.27
2019-01-20T19:45:18.322Z,40.67
2019-01-20T19:47:49.413Z,43.13
2019-01-20T19:50:20.314Z,38.70
2019-01-20T19:52:52.910Z,47.63
2019-01-20T19:55:26.461Z,42.23
2019-01-20T19:57:57.406Z,42.00
2019-01-20T20:00:30.400Z,41.30
2019-01-20T20:03:07.538Z,40.60
2019-01-20T20:05:38.625Z,46.27
2019-01-20T20:08:09.433Z,40.03
2019-01-20T20:10:40.433Z,37.30
2019-01-20T20:13:11.264Z,36.70
2019-01-20T20:15:41.996Z,36.93
2019-01-20T20:18:12.933Z,38.43
2019-01-20T20:20:43.582Z,34.67
2019-01-20T20:23:15.975Z,37.20
2019-01-20T20:25:47.859Z,37.07
2019-01-20T20:28:18.833Z,37.30
2019-01-20T20:30:49.633Z,35.97
2019-01-20T20:33:20.558Z,37.80
2019-01-20T20:35:51.408Z,38.17
2019-01-20T20:38:22.021Z,35.77
2019-01-20T20:40:53.316Z,34.93
2019-01-20T20:43:24.322Z,35.97
2019-01-20T20:45:54.959Z,33.90
2019-01-20T20:48:25.874Z,34.03
2019-01-20T20:50:56.609Z,36.63
2019-01-20T20:53:27.476Z,39.87
2019-01-20T20:55:57.811Z,31.30
2019-01-20T20:58:28.525Z,35.03
2019-01-20T21:00:59.500Z,34.27
2019-01-20T21:03:30.220Z,31.03
2019-01-20T21:06:01.106Z,30.73
2019-01-20T21:08:31.826Z,33.40
2019-01-20T21:11:02.631Z,32.03
2019-01-20T21:13:33.462Z,32.30
2019-01-20T21:16:06.096Z,32.37
2019-01-20T21:18:36.881Z,34.30
2019-01-20T21:21:08.938Z,34.63
2019-01-20T21:23:39.660Z,34.77
2019-01-20T21:26:10.422Z,38.13
2019-01-20T21:28:41.241Z,38.93
2019-01-20T21:31:11.945Z,36.03
2019-01-20T21:33:44.420Z,33.37
2019-01-20T21:36:15.261Z,35.07
2019-01-20T21:38:46.034Z,35.00
2019-01-20T21:41:16.717Z,37.93
2019-01-20T21:43:48.067Z,37.27
2019-01-20T21:46:18.795Z,34.53
2019-01-20T21:48:49.967Z,33.70
2019-01-20T21:51:20.791Z,34.23
2019-01-20T21:53:52.943Z,39.00
2019-01-20T21:56:23.671Z,37.00
2019-01-20T21:58:54.069Z,31.33
2019-01-20T22:01:24.775Z,34.97
2019-01-20T22:03:55.569Z,31.70
2019-01-20T22:06:29.090Z,34.13
2019-01-20T22:08:59.688Z,33.67
2019-01-20T22:11:30.446Z,36.83
2019-01-20T22:14:01.183Z,29.53
2019-01-20T22:16:31.907Z,29.40
2019-01-20T22:19:02.521Z,34.47
2019-01-20T22:21:33.162Z,31.83
2019-01-20T22:24:04.004Z,30.87
2019-01-20T22:26:34.671Z,30.67
2019-01-20T22:29:05.468Z,34.80
2019-01-20T22:31:36.085Z,33.87
2019-01-20T22:34:07.038Z,33.03
2019-01-20T22:36:37.675Z,31.03
2019-01-20T22:39:08.077Z,29.70
2019-01-20T22:41:38.751Z,29.87
2019-01-20T22:44:09.819Z,34.47
2019-01-20T22:46:40.498Z,31.23
2019-01-20T22:49:11.224Z,32.73
2019-01-20T22:51:41.875Z,32.17
2019-01-20T22:54:12.612Z,36.13
2019-01-20T22:56:43.400Z,29.30
2019-01-20T22:59:14.190Z,29.30
2019-01-20T23:01:44.485Z,31.83
2019-01-20T23:04:15.153Z,31.37
2019-01-20T23:06:45.882Z,32.37
2019-01-20T23:09:19.258Z,30.50
2019-01-20T23:11:49.904Z,30.30
2019-01-20T23:14:20.568Z,30.60
2019-01-20T23:16:50.907Z,31.20
2019-01-20T23:19:21.559Z,27.67
2019-01-20T23:21:51.836Z,25.90
2019-01-20T23:24:22.531Z,27.03
2019-01-20T23:26:52.811Z,30.93
2019-01-20T23:29:23.532Z,22.67
2019-01-20T23:31:58.918Z,25.17
2019-01-20T23:34:30.839Z,27.90
2019-01-20T23:37:02.080Z,28.60
2019-01-20T23:39:32.806Z,27.93
2019-01-20T23:42:03.637Z,28.33
2019-01-20T23:44:34.356Z,27.40
2019-01-20T23:47:04.987Z,28.47
2019-01-20T23:49:35.610Z,25.37
2019-01-20T23:52:06.391Z,26.60
2019-01-20T23:54:36.881Z,28.50
2019-01-20T23:57:07.191Z,28.27
2019-01-20T23:59:37.929Z,26.23
